Time;durP1;ratioP1;P1;durP2;ratioP2;P2;SDS_P1;SDS_P2;PMS_P1;PMS_P2;Temp;Humidity;BMP_temperature;BMP_pressure;BME280_temperature;BME280_humidity;BME280_pressure;Samples;Min_cycle;Max_cycle;Signal;HPM_P1;HPM_P2
2021/01/17 00:01:11;;;;;;;15.43;9.37;;;;;;;-2.64;100.00;150700.66;5080431;28;20468;-91
2021/01/17 00:03:47;;;;;;;14.07;9.10;;;;;;;-2.67;100.00;150692.97;5083171;28;20451;-90
2021/01/17 00:06:22;;;;;;;15.40;9.30;;;;;;;-2.65;100.00;150698.06;5109542;28;20435;-91
2021/01/17 00:08:57;;;;;;;15.50;9.77;;;;;;;-2.59;100.00;150712.16;5094405;28;20447;-90
2021/01/17 00:11:32;;;;;;;16.10;10.40;;;;;;;-2.60;100.00;150710.91;5080392;28;20451;-91
2021/01/17 00:14:08;;;;;;;17.97;10.80;;;;;;;-2.61;100.00;150708.34;5012261;28;20447;-91
2021/01/17 00:16:43;;;;;;;14.60;9.20;;;;;;;-2.66;100.00;150695.53;5005001;28;20428;-91
2021/01/17 00:19:19;;;;;;;15.40;8.87;;;;;;;-2.69;100.00;150687.84;5073633;28;20457;-91
2021/01/17 00:21:54;;;;;;;14.90;9.10;;;;;;;-2.77;100.00;150667.38;5078066;28;20976;-90
2021/01/17 00:24:30;;;;;;;16.17;10.60;;;;;;;-2.74;100.00;150675.06;5094774;28;20435;-91
2021/01/17 00:27:05;;;;;;;17.63;10.67;;;;;;;-2.83;100.00;150652.00;5016361;28;20436;-91
2021/01/17 00:29:41;;;;;;;13.97;9.37;;;;;;;-2.82;100.00;150653.28;5074954;28;20442;-91
2021/01/17 00:32:17;;;;;;;12.80;9.10;;;;;;;-2.86;100.00;150644.31;5080022;28;20829;-90
2021/01/17 00:34:53;;;;;;;16.67;10.47;;;;;;;-2.84;100.00;150649.47;5090140;28;20445;-91
2021/01/17 00:37:29;;;;;;;15.03;10.87;;;;;;;-2.85;100.00;150646.91;5110498;28;20441;-91
2021/01/17 00:40:05;;;;;;;17.13;12.00;;;;;;;-2.88;100.00;150639.22;5064062;28;20879;-91
2021/01/17 00:42:47;;;;;;;17.30;11.60;;;;;;;-2.92;100.00;150629.00;5074610;28;20801;-91
2021/01/17 00:45:25;;;;;;;18.00;11.33;;;;;;;-2.89;100.00;150636.69;5079481;28;20462;-91
2021/01/17 00:48:00;;;;;;;16.50;11.50;;;;;;;-2.89;100.00;150636.69;5093273;28;20449;-91
2021/01/17 00:50:41;;;;;;;16.20;11.77;;;;;;;-2.87;100.00;150640.50;5093773;28;20425;-90
2021/01/17 00:53:17;;;;;;;17.67;12.43;;;;;;;-2.84;100.00;150649.47;5059616;28;20453;-90
2021/01/17 00:55:53;;;;;;;19.13;11.90;;;;;;;-2.91;100.00;150631.53;5064210;28;20473;-90
2021/01/17 00:58:32;;;;;;;16.03;10.67;;;;;;;-2.83;100.00;150652.00;5077624;28;21150;-91
2021/01/17 01:01:16;;;;;;;18.03;12.23;;;;;;;-2.86;100.00;150643.06;5077627;28;20466;-91
2021/01/17 01:03:52;;;;;;;16.80;11.10;;;;;;;-2.90;100.00;150634.09;5109293;28;20465;-91
2021/01/17 01:06:28;;;;;;;18.33;11.60;;;;;;;-2.87;100.00;150641.78;5096596;28;20429;-91
2021/01/17 01:09:06;;;;;;;18.03;11.60;;;;;;;-2.84;100.00;150649.47;5073282;28;20500;-91
2021/01/17 01:11:42;;;;;;;15.87;10.43;;;;;;;-2.83;100.00;150652.00;5064481;28;20433;-91
2021/01/17 01:14:18;;;;;;;20.43;12.57;;;;;;;-2.80;100.00;150659.69;5097477;28;20527;-91
2021/01/17 01:16:55;;;;;;;18.40;11.23;;;;;;;-2.84;100.00;150648.19;5105454;28;20427;-91
2021/01/17 01:19:30;;;;;;;16.70;10.90;;;;;;;-2.81;100.00;150657.16;5079594;28;20449;-91
2021/01/17 01:22:06;;;;;;;16.17;10.97;;;;;;;-2.80;100.00;150659.69;5082454;28;20443;-91
2021/01/17 01:24:41;;;;;;;19.10;11.50;;;;;;;-2.82;100.00;150653.28;5073267;28;20448;-91
2021/01/17 01:27:17;;;;;;;20.03;10.90;;;;;;;-2.79;100.00;150662.25;5086241;28;20426;-91
2021/01/17 01:29:52;;;;;;;15.53;11.50;;;;;;;-2.91;100.00;150630.28;5099349;28;20445;-91
2021/01/17 01:32:27;;;;;;;17.80;11.57;;;;;;;-2.96;100.00;150618.72;5110653;28;20967;-92
2021/01/17 01:35:03;;;;;;;17.43;11.23;;;;;;;-2.92;100.00;150629.00;5077680;28;20940;-91
2021/01/17 01:37:40;;;;;;;21.87;13.40;;;;;;;-2.99;100.00;150609.81;5078153;28;20544;-91
2021/01/17 01:40:15;;;;;;;19.50;13.63;;;;;;;-2.98;100.00;150613.63;5089913;28;20456;-91
2021/01/17 01:42:50;;;;;;;22.37;13.63;;;;;;;-2.98;100.00;150613.63;5072856;28;21001;-90
2021/01/17 01:45:26;;;;;;;20.00;12.87;;;;;;;-2.99;100.00;150611.03;5092211;28;20415;-91
2021/01/17 01:48:05;;;;;;;18.07;11.40;;;;;;;-2.91;100.00;150631.53;5075737;28;20450;-90
2021/01/17 01:50:41;;;;;;;20.63;12.60;;;;;;;-2.93;100.00;150625.13;5059182;28;20405;-90
2021/01/17 01:53:17;;;;;;;18.63;13.27;;;;;;;-2.93;100.00;150626.41;5087675;28;20450;-90
2021/01/17 01:55:53;;;;;;;18.23;13.00;;;;;;;-2.92;100.00;150627.69;5081116;28;20932;-90
2021/01/17 01:58:28;;;;;;;22.03;13.87;;;;;;;-2.97;100.00;150614.91;5124857;28;20447;-91
2021/01/17 02:01:04;;;;;;;19.77;14.00;;;;;;;-3.10;100.00;150582.94;5120535;28;20544;-91
2021/01/17 02:03:45;;;;;;;21.47;14.10;;;;;;;-3.00;100.00;150608.50;5109741;28;20460;-91
2021/01/17 02:06:22;;;;;;;20.50;13.17;;;;;;;-2.99;100.00;150611.03;5124034;28;20512;-91
2021/01/17 02:09:14;;;;;;;21.23;13.90;;;;;;;-3.03;100.00;150600.84;5072575;28;20416;-91
2021/01/17 02:11:57;;;;;;;22.37;13.77;;;;;;;-3.13;100.00;150575.25;5082172;28;20771;-92
2021/01/17 02:14:41;;;;;;;18.60;12.47;;;;;;;-3.06;100.00;150593.16;5093239;28;20442;-92
2021/01/17 02:17:20;;;;;;;24.60;13.67;;;;;;;-3.10;100.00;150584.16;5092582;28;20441;-91
2021/01/17 02:20:15;;;;;;;20.37;13.90;;;;;;;-3.00;100.00;150608.50;5090580;28;20441;-91
2021/01/17 02:23:05;;;;;;;19.20;12.83;;;;;;;-2.99;100.00;150611.03;5075776;28;20932;-91
2021/01/17 02:25:42;;;;;;;17.50;12.80;;;;;;;-2.97;100.00;150616.19;5092885;28;20447;-91
2021/01/17 02:28:18;;;;;;;17.63;12.67;;;;;;;-2.98;100.00;150612.34;5074792;28;20415;-91
2021/01/17 02:30:55;;;;;;;21.27;12.33;;;;;;;-2.96;100.00;150618.72;5096368;28;20523;-91
2021/01/17 02:33:33;;;;;;;20.87;13.83;;;;;;;-2.94;100.00;150623.88;5096346;28;20423;-91
2021/01/17 02:36:18;;;;;;;23.27;13.57;;;;;;;-2.92;100.00;150629.00;5095964;28;20421;-91
2021/01/17 02:39:03;;;;;;;19.20;12.97;;;;;;;-2.90;100.00;150632.81;5081581;28;20446;-91
2021/01/17 02:41:44;;;;;;;21.20;13.23;;;;;;;-2.89;100.00;150636.69;5088373;28;20463;-92
2021/01/17 02:44:20;;;;;;;21.53;12.53;;;;;;;-2.88;100.00;150637.91;5091046;28;20414;-92
2021/01/17 02:46:56;;;;;;;18.80;11.37;;;;;;;-2.90;100.00;150634.09;5086144;28;20430;-91
2021/01/17 02:49:32;;;;;;;21.70;12.90;;;;;;;-2.90;100.00;150634.09;5091447;28;20428;-92
2021/01/17 02:52:07;;;;;;;15.23;11.20;;;;;;;-2.89;100.00;150636.69;5075782;28;20446;-92
2021/01/17 02:54:43;;;;;;;21.53;12.60;;;;;;;-2.87;100.00;150641.78;5078034;28;20417;-92
2021/01/17 02:57:23;;;;;;;18.83;12.60;;;;;;;-2.87;100.00;150641.78;5082901;28;20481;-92
2021/01/17 03:00:04;;;;;;;16.97;12.10;;;;;;;-2.88;100.00;150639.22;5075938;28;20413;-92
2021/01/17 03:02:43;;;;;;;21.00;13.90;;;;;;;-2.87;100.00;150640.50;5090537;28;20442;-92
2021/01/17 03:05:21;;;;;;;19.53;13.50;;;;;;;-2.85;100.00;150646.91;5094914;28;20412;-92
2021/01/17 03:07:57;;;;;;;25.40;14.47;;;;;;;-2.85;100.00;150646.91;5095438;28;20466;-92
2021/01/17 03:10:32;;;;;;;21.87;13.97;;;;;;;-2.86;100.00;150643.06;5095976;28;20931;-92
2021/01/17 03:13:09;;;;;;;20.00;12.70;;;;;;;-2.82;100.00;150654.56;5074969;28;20467;-92
2021/01/17 03:15:45;;;;;;;20.53;13.03;;;;;;;-2.81;100.00;150657.16;5093429;28;20445;-92
2021/01/17 03:18:20;;;;;;;22.10;14.80;;;;;;;-2.81;100.00;150657.16;5084851;28;20431;-92
2021/01/17 03:20:56;;;;;;;22.80;14.70;;;;;;;-2.80;100.00;150659.69;5095344;28;20527;-92
2021/01/17 03:23:31;;;;;;;25.97;15.30;;;;;;;-2.81;100.00;150655.88;5074833;28;20538;-92
2021/01/17 03:26:06;;;;;;;23.40;13.17;;;;;;;-2.77;100.00;150667.38;5077197;28;20434;-92
2021/01/17 03:28:44;;;;;;;23.20;13.80;;;;;;;-2.72;100.00;150678.88;5094818;28;20783;-92
2021/01/17 03:31:20;;;;;;;21.93;14.63;;;;;;;-2.74;100.00;150673.78;5090512;28;20522;-92
2021/01/17 03:33:55;;;;;;;18.83;13.37;;;;;;;-2.73;100.00;150677.63;5086463;28;20453;-92
2021/01/17 03:36:30;;;;;;;25.70;14.70;;;;;;;-2.70;100.00;150684.03;5094633;28;20457;-92
2021/01/17 03:39:05;;;;;;;23.33;14.20;;;;;;;-2.73;100.00;150677.63;5104241;28;20437;-92
2021/01/17 03:41:41;;;;;;;23.43;15.33;;;;;;;-2.78;100.00;150663.56;5085473;28;20842;-92
2021/01/17 03:44:17;;;;;;;21.07;13.63;;;;;;;-2.76;100.00;150668.66;5083489;28;20473;-91
2021/01/17 03:46:53;;;;;;;22.90;14.80;;;;;;;-2.74;100.00;150673.78;5094434;28;20541;-92
2021/01/17 03:49:28;;;;;;;22.20;14.10;;;;;;;-2.69;100.00;150686.56;5094560;28;20426;-92
2021/01/17 03:52:03;;;;;;;23.73;13.63;;;;;;;-2.70;100.00;150685.28;5094505;28;20439;-92
2021/01/17 03:54:39;;;;;;;21.20;13.90;;;;;;;-2.67;100.00;150692.97;5094563;28;20487;-92
2021/01/17 03:57:14;;;;;;;21.33;15.20;;;;;;;-2.67;100.00;150692.97;5078114;28;20573;-92
2021/01/17 03:59:50;;;;;;;20.03;13.10;;;;;;;-2.66;100.00;150694.25;5094438;28;20462;-92
2021/01/17 04:02:25;;;;;;;19.30;13.93;;;;;;;-2.70;100.00;150685.28;5094356;28;20537;-91
2021/01/17 04:05:01;;;;;;;22.90;13.90;;;;;;;-2.69;100.00;150687.84;5094282;28;20924;-92
2021/01/17 04:07:36;;;;;;;22.60;14.07;;;;;;;-2.62;100.00;150705.75;5079558;28;20445;-92
2021/01/17 04:10:12;;;;;;;20.87;13.43;;;;;;;-2.63;100.00;150703.22;5073782;28;20447;-92
2021/01/17 04:12:47;;;;;;;24.33;14.77;;;;;;;-2.67;100.00;150692.97;5091728;28;20862;-92
2021/01/17 04:15:24;;;;;;;22.53;13.77;;;;;;;-2.66;100.00;150694.25;5094019;28;20448;-91
2021/01/17 04:17:59;;;;;;;24.10;14.50;;;;;;;-2.70;100.00;150685.28;5088272;28;20450;-92
2021/01/17 04:20:34;;;;;;;19.00;13.03;;;;;;;-2.69;100.00;150687.84;5094130;28;20488;-92
2021/01/17 04:23:09;;;;;;;18.87;12.43;;;;;;;-2.68;100.00;150689.16;5086566;28;20896;-92
2021/01/17 04:25:45;;;;;;;23.20;13.57;;;;;;;-2.65;100.00;150696.84;5094252;28;20435;-92
2021/01/17 04:28:20;;;;;;;23.90;15.13;;;;;;;-2.68;100.00;150689.16;5094267;28;20437;-92
2021/01/17 04:30:57;;;;;;;20.37;13.47;;;;;;;-2.68;100.00;150689.16;5094650;28;20421;-91
2021/01/17 04:33:32;;;;;;;21.10;13.83;;;;;;;-2.71;100.00;150681.47;5093801;28;20451;-91
2021/01/17 04:36:08;;;;;;;23.90;14.07;;;;;;;-2.76;100.00;150669.94;5093539;28;20467;-92
2021/01/17 04:38:44;;;;;;;24.00;15.03;;;;;;;-2.77;100.00;150666.09;5093998;28;20446;-92
2021/01/17 04:41:21;;;;;;;20.53;14.17;;;;;;;-2.78;100.00;150664.78;5093470;28;20830;-92
2021/01/17 04:43:58;;;;;;;24.50;14.73;;;;;;;-2.72;100.00;150678.88;5092610;28;20999;-92
2021/01/17 04:46:34;;;;;;;23.60;14.77;;;;;;;-2.71;100.00;150681.47;5110326;28;20444;-91
2021/01/17 04:49:10;;;;;;;22.30;14.13;;;;;;;-2.71;100.00;150682.75;5098362;28;20431;-92
2021/01/17 04:51:50;;;;;;;19.87;13.37;;;;;;;-2.72;100.00;150678.88;5074237;28;20436;-91
2021/01/17 04:54:27;;;;;;;20.37;13.93;;;;;;;-2.68;100.00;150690.44;5074253;28;20432;-92
2021/01/17 04:57:09;;;;;;;25.47;15.17;;;;;;;-2.64;100.00;150699.38;5038011;28;20482;-92
2021/01/17 04:59:46;;;;;;;29.40;15.30;;;;;;;-2.64;100.00;150700.66;4992121;28;20436;-92
2021/01/17 05:02:32;;;;;;;23.20;14.60;;;;;;;-2.63;100.00;150703.22;5056972;28;20765;-92
2021/01/17 05:05:14;;;;;;;21.07;14.43;;;;;;;-2.62;100.00;150705.75;5019457;28;20478;-92
2021/01/17 05:08:16;;;;;;;22.17;14.10;;;;;;;-2.59;100.00;150712.16;5011200;28;20439;-92
2021/01/17 05:11:01;;;;;;;24.73;14.57;;;;;;;-2.60;100.00;150710.91;4989119;28;20791;-92
2021/01/17 05:13:38;;;;;;;24.00;14.60;;;;;;;-2.58;100.00;150714.75;5076600;28;20462;-92
2021/01/17 05:16:15;;;;;;;19.30;14.07;;;;;;;-2.59;100.00;150713.44;5093721;28;20426;-92
2021/01/17 05:18:53;;;;;;;20.73;12.77;;;;;;;-2.57;100.00;150717.31;5093561;28;20442;-92
2021/01/17 05:21:32;;;;;;;19.17;12.57;;;;;;;-2.60;100.00;150710.91;5040459;28;20487;-92
2021/01/17 05:24:12;;;;;;;23.53;14.40;;;;;;;-2.58;100.00;150716.03;4992665;28;20411;-92
2021/01/17 05:26:51;;;;;;;23.00;14.23;;;;;;;-2.57;100.00;150717.31;5041659;28;20439;-90
2021/01/17 05:29:28;;;;;;;19.37;14.00;;;;;;;-2.57;100.00;150718.56;5119730;28;20518;-92
2021/01/17 05:32:06;;;;;;;21.80;14.70;;;;;;;-2.54;100.00;150726.25;5092316;28;20919;-92
2021/01/17 05:34:42;;;;;;;19.73;13.40;;;;;;;-2.47;100.00;150744.19;5090474;28;20452;-92
2021/01/17 05:37:18;;;;;;;22.53;14.83;;;;;;;-2.48;100.00;150741.63;5008514;28;20457;-92
2021/01/17 05:39:59;;;;;;;22.33;14.00;;;;;;;-2.46;100.00;150746.72;5007059;28;20534;-92
2021/01/17 05:42:40;;;;;;;22.67;14.47;;;;;;;-2.49;100.00;150739.03;5080846;28;20559;-92
2021/01/17 05:45:17;;;;;;;22.60;15.27;;;;;;;-2.48;100.00;150741.63;5006291;28;20475;-92
2021/01/17 05:47:54;;;;;;;22.60;15.00;;;;;;;-2.53;100.00;150728.81;5076502;28;21196;-93
2021/01/17 05:50:32;;;;;;;25.47;15.00;;;;;;;-2.56;100.00;150719.84;5059090;28;20455;-92
2021/01/17 05:53:07;;;;;;;23.73;13.47;;;;;;;-2.56;100.00;150719.84;4991373;28;20436;-93
2021/01/17 05:55:46;;;;;;;25.00;14.90;;;;;;;-2.44;100.00;150749.31;5025047;28;20471;-92
2021/01/17 05:58:23;;;;;;;23.17;15.53;;;;;;;-2.49;100.00;150737.81;5076323;28;20430;-92
2021/01/17 06:01:00;;;;;;;23.90;13.77;;;;;;;-2.52;100.00;150731.41;5093309;28;20459;-92
2021/01/17 06:03:37;;;;;;;23.23;14.23;;;;;;;-2.48;100.00;150741.63;5060593;28;20497;-93
2021/01/17 06:06:13;;;;;;;22.33;14.77;;;;;;;-2.49;100.00;150737.81;5077328;28;20792;-93
2021/01/17 06:08:52;;;;;;;21.57;14.00;;;;;;;-2.50;100.00;150736.50;5076323;28;20444;-92
2021/01/17 06:11:28;;;;;;;25.77;16.30;;;;;;;-2.43;100.00;150753.13;5076152;28;20443;-92
2021/01/17 06:14:04;;;;;;;22.37;13.77;;;;;;;-2.38;100.00;150764.69;5076166;28;20440;-93
2021/01/17 06:16:40;;;;;;;21.40;14.87;;;;;;;-2.36;100.00;150769.81;5092934;28;20522;-93
2021/01/17 06:19:16;;;;;;;27.00;16.73;;;;;;;-2.35;100.00;150772.31;5076030;28;20545;-93
2021/01/17 06:21:53;;;;;;;28.80;19.53;;;;;;;-2.34;100.00;150774.91;5075911;28;20882;-92
2021/01/17 06:24:39;;;;;;;22.53;15.60;;;;;;;-2.34;100.00;150774.91;5076111;28;20445;-92
2021/01/17 06:27:21;;;;;;;24.53;15.60;;;;;;;-2.37;100.00;150767.22;5109405;28;20437;-92
2021/01/17 06:29:57;;;;;;;27.13;16.30;;;;;;;-2.35;100.00;150772.31;5074953;28;20444;-92
2021/01/17 06:32:38;;;;;;;23.43;14.70;;;;;;;-2.31;100.00;150783.88;5076566;28;20437;-92
2021/01/17 06:35:14;;;;;;;26.20;17.10;;;;;;;-2.31;100.00;150782.59;5055448;28;20476;-93
2021/01/17 06:37:50;;;;;;;28.10;16.13;;;;;;;-2.32;100.00;150780.03;5071719;28;20522;-93
2021/01/17 06:40:31;;;;;;;26.80;16.00;;;;;;;-2.36;100.00;150769.81;5060521;28;20471;-92
2021/01/17 06:43:09;;;;;;;23.70;15.77;;;;;;;-2.33;100.00;150777.50;5075345;28;20448;-93
2021/01/17 06:45:46;;;;;;;26.23;16.20;;;;;;;-2.33;100.00;150777.50;5089852;28;20440;-92
2021/01/17 06:48:23;;;;;;;25.97;16.47;;;;;;;-2.33;100.00;150778.72;5075641;28;20452;-92
2021/01/17 06:51:16;;;;;;;25.07;15.80;;;;;;;-2.30;100.00;150785.19;5075411;28;20432;-93
2021/01/17 06:53:55;;;;;;;23.03;15.27;;;;;;;-2.32;100.00;150780.03;5075365;28;20449;-92
2021/01/17 06:56:31;;;;;;;22.00;14.90;;;;;;;-2.31;100.00;150783.88;5081560;28;20510;-91
2021/01/17 06:59:07;;;;;;;22.37;14.80;;;;;;;-2.34;100.00;150776.19;5077709;28;20453;-92
2021/01/17 07:01:43;;;;;;;24.00;15.53;;;;;;;-2.29;100.00;150787.72;5085213;28;20459;-92
2021/01/17 07:04:29;;;;;;;24.57;16.03;;;;;;;-2.26;100.00;150795.41;5080604;28;20447;-92
2021/01/17 07:07:17;;;;;;;23.03;15.13;;;;;;;-2.33;100.00;150777.50;5095764;28;20432;-93
2021/01/17 07:09:59;;;;;;;22.50;14.20;;;;;;;-2.28;100.00;150790.28;5112251;28;20484;-90
2021/01/17 07:12:41;;;;;;;26.33;16.03;;;;;;;-2.30;100.00;150785.19;5083941;28;20440;-89
2021/01/17 07:15:24;;;;;;;25.23;15.17;;;;;;;-2.30;100.00;150785.19;5116608;28;20481;-89
2021/01/17 07:18:02;;;;;;;26.50;15.97;;;;;;;-2.30;100.00;150786.41;5084339;28;20447;-92
2021/01/17 07:20:39;;;;;;;26.77;15.77;;;;;;;-2.28;100.00;150790.28;5094825;28;20974;-91
2021/01/17 07:23:16;;;;;;;27.63;16.03;;;;;;;-2.26;100.00;150795.41;5094676;28;20798;-90
2021/01/17 07:25:52;;;;;;;25.13;15.07;;;;;;;-2.25;100.00;150797.97;5095672;28;20881;-91
2021/01/17 07:28:31;;;;;;;24.77;16.67;;;;;;;-2.19;100.00;150813.31;5104186;28;20439;-90
2021/01/17 07:31:15;;;;;;;24.57;15.90;;;;;;;-2.18;100.00;150815.91;5097770;28;20441;-90
2021/01/17 07:33:51;;;;;;;25.10;17.07;;;;;;;-2.18;100.00;150817.19;5094178;28;20794;-90
2021/01/17 07:36:28;;;;;;;27.40;18.33;;;;;;;-2.15;100.00;150823.59;5094529;28;20434;-90
2021/01/17 07:39:04;;;;;;;27.23;18.13;;;;;;;-2.13;100.00;150830.00;5079037;28;20448;-91
2021/01/17 07:41:46;;;;;;;21.17;15.40;;;;;;;-2.10;100.00;150836.38;5087671;28;20464;-91
2021/01/17 07:44:31;;;;;;;29.70;15.97;;;;;;;-2.12;100.00;150831.28;5095545;28;20448;-91
2021/01/17 07:47:11;;;;;;;22.17;16.73;;;;;;;-2.12;100.00;150831.28;5095476;28;20482;-91
2021/01/17 07:49:47;;;;;;;24.03;16.80;;;;;;;-2.09;100.00;150838.97;5094521;28;21198;-91
2021/01/17 07:52:24;;;;;;;24.90;16.43;;;;;;;-2.07;100.00;150844.06;5110412;28;20417;-91
2021/01/17 07:54:59;;;;;;;25.40;15.50;;;;;;;-2.08;100.00;150841.50;5111254;28;20459;-91
2021/01/17 07:57:36;;;;;;;28.00;16.30;;;;;;;-2.06;100.00;150847.91;5102033;27;20464;-91
2021/01/17 08:00:14;;;;;;;24.20;15.97;;;;;;;-2.03;100.00;150855.59;5073751;28;20489;-90
2021/01/17 08:02:49;;;;;;;21.90;15.63;;;;;;;-2.01;100.00;150860.69;5091711;28;20910;-91
2021/01/17 08:05:51;;;;;;;24.10;15.73;;;;;;;-2.00;100.00;150862.00;5094581;28;20448;-91
2021/01/17 08:08:49;;;;;;;26.30;16.50;;;;;;;-2.00;100.00;150863.28;5074069;28;21078;-91
2021/01/17 08:11:44;;;;;;;24.83;16.87;;;;;;;-1.99;100.00;150864.56;5076174;28;20516;-90
2021/01/17 08:14:22;;;;;;;25.23;17.33;;;;;;;-2.00;100.00;150863.28;5098585;28;20471;-91
2021/01/17 08:17:12;;;;;;;23.80;16.13;;;;;;;-1.95;100.00;150874.78;5084294;28;20437;-91
2021/01/17 08:19:55;;;;;;;24.97;17.00;;;;;;;-1.93;100.00;150879.91;5073493;28;20477;-90
2021/01/17 08:22:46;;;;;;;24.97;15.97;;;;;;;-1.87;100.00;150895.28;5102777;28;20670;-91
2021/01/17 08:25:57;;;;;;;21.77;14.20;;;;;;;-1.83;100.00;150905.56;5093596;28;20441;-90
2021/01/17 08:28:37;;;;;;;26.60;15.80;;;;;;;-1.78;100.00;150917.09;5067030;28;20828;-90
2021/01/17 08:31:37;;;;;;;26.90;17.13;;;;;;;-1.77;100.00;150920.91;5059291;28;20932;-91
2021/01/17 08:34:15;;;;;;;23.43;15.37;;;;;;;-1.73;100.00;150929.88;5093075;28;20453;-90
2021/01/17 08:36:50;;;;;;;29.13;16.90;;;;;;;-1.70;100.00;150938.88;5088508;28;20448;-90
2021/01/17 08:39:54;;;;;;;23.43;15.30;;;;;;;-1.65;100.00;150951.69;5072736;28;20441;-90
2021/01/17 08:42:32;;;;;;;22.30;15.40;;;;;;;-1.61;100.00;150961.91;5074406;28;20582;-90
2021/01/17 08:45:33;;;;;;;23.63;14.80;;;;;;;-1.57;100.00;150972.19;5094473;28;20926;-91
2021/01/17 08:48:23;;;;;;;25.33;18.13;;;;;;;-1.56;100.00;150974.72;5094149;28;20788;-90
2021/01/17 08:51:19;;;;;;;27.93;17.40;;;;;;;-1.53;100.00;150981.13;5092909;28;20439;-90
2021/01/17 08:53:55;;;;;;;21.97;14.90;;;;;;;-1.50;100.00;150990.09;5092758;28;20441;-90
2021/01/17 08:56:35;;;;;;;22.57;14.73;;;;;;;-1.49;100.00;150992.69;5109133;28;20480;-90
2021/01/17 08:59:10;;;;;;;25.23;15.83;;;;;;;-1.48;100.00;150995.22;5092381;28;20452;-91
2021/01/17 09:01:58;;;;;;;23.73;15.60;;;;;;;-1.44;100.00;151005.50;5072379;28;20459;-89
2021/01/17 09:04:36;;;;;;;25.90;15.27;;;;;;;-1.43;100.00;151006.78;5092103;28;20446;-90
2021/01/17 09:07:32;;;;;;;26.60;15.70;;;;;;;-1.44;100.00;151004.22;5092092;28;20475;-90
2021/01/17 09:10:09;;;;;;;23.90;16.70;;;;;;;-1.42;100.00;151009.31;5092608;28;20453;-88
2021/01/17 09:12:45;;;;;;;23.73;15.37;;;;;;;-1.42;100.00;151009.31;5092732;28;20784;-90
2021/01/17 09:15:21;;;;;;;22.30;15.77;;;;;;;-1.40;100.00;151015.72;5091870;28;20440;-90
2021/01/17 09:17:57;;;;;;;23.40;16.70;;;;;;;-1.35;100.00;151028.53;5074903;28;20438;-90
2021/01/17 09:20:35;;;;;;;27.70;16.40;;;;;;;-1.30;100.00;151040.13;5088827;28;20447;-88
2021/01/17 09:23:11;;;;;;;28.37;17.40;;;;;;;-1.27;100.00;151049.06;5077558;28;20448;-87
2021/01/17 09:25:47;;;;;;;26.63;16.57;;;;;;;-1.23;100.00;151058.03;5093148;28;20414;-87
2021/01/17 09:28:22;;;;;;;24.87;15.23;;;;;;;-1.20;100.00;151065.72;5089525;28;20441;-87
2021/01/17 09:30:59;;;;;;;25.63;16.17;;;;;;;-1.16;100.00;151075.97;5079275;28;20922;-87
2021/01/17 09:33:36;;;;;;;21.87;15.03;;;;;;;-1.14;100.00;151081.13;5095777;28;20452;-86
2021/01/17 09:36:12;;;;;;;23.33;15.87;;;;;;;-1.09;100.00;151092.66;5096121;28;20944;-87
2021/01/17 09:38:48;;;;;;;27.40;15.37;;;;;;;-1.07;100.00;151097.78;5095912;28;20448;-87
2021/01/17 09:41:25;;;;;;;28.03;16.73;;;;;;;-1.04;100.00;151105.47;5095973;28;20500;-87
2021/01/17 09:44:00;;;;;;;22.77;15.07;;;;;;;-1.04;100.00;151105.47;5096168;28;20951;-87
2021/01/17 09:46:36;;;;;;;23.33;16.00;;;;;;;-1.01;100.00;151114.47;5096084;28;20442;-87
2021/01/17 09:49:11;;;;;;;20.37;14.40;;;;;;;-1.00;100.00;151115.69;5095365;28;20440;-87
2021/01/17 09:51:48;;;;;;;24.53;14.27;;;;;;;-0.98;100.00;151120.88;5097958;28;20437;-87
2021/01/17 09:54:24;;;;;;;21.57;14.97;;;;;;;-0.92;100.00;151136.22;5075463;28;20468;-87
2021/01/17 09:57:00;;;;;;;22.93;14.30;;;;;;;-0.90;100.00;151141.38;5062782;28;20555;-87
2021/01/17 09:59:35;;;;;;;21.47;14.90;;;;;;;-0.84;100.00;151158.03;5096834;28;20889;-86
2021/01/17 10:02:10;;;;;;;21.37;15.87;;;;;;;-0.79;100.00;151169.56;5095300;28;21012;-86
2021/01/17 10:04:46;;;;;;;18.90;14.37;;;;;;;-0.77;100.00;151174.72;5099352;28;20455;-86
2021/01/17 10:07:23;;;;;;;21.40;14.37;;;;;;;-0.72;100.00;151187.53;5041853;28;20446;-86
2021/01/17 10:09:58;;;;;;;20.13;13.47;;;;;;;-0.70;100.00;151193.94;5051553;28;20480;-86
2021/01/17 10:12:34;;;;;;;21.70;13.37;;;;;;;-0.65;100.00;151205.47;4992534;28;20434;-77
2021/01/17 10:15:13;;;;;;;23.13;13.87;;;;;;;-0.62;100.00;151214.47;5009437;28;20441;-77
2021/01/17 10:17:49;;;;;;;23.17;13.90;;;;;;;-0.54;100.00;151233.69;4999787;28;20442;-89
2021/01/17 10:20:25;;;;;;;19.77;12.40;;;;;;;-0.57;100.00;151224.69;4992927;28;20430;-88
2021/01/17 10:23:03;;;;;;;20.17;13.03;;;;;;;-0.49;100.00;151246.53;5013034;28;20445;-77
2021/01/17 10:25:38;;;;;;;19.17;13.23;;;;;;;-0.53;100.00;151235.00;5001261;28;21007;-77
2021/01/17 10:28:14;;;;;;;20.27;13.10;;;;;;;-0.53;100.00;151235.00;4996721;28;20473;-77
2021/01/17 10:30:52;;;;;;;20.73;14.30;;;;;;;-0.50;100.00;151243.94;5000792;28;20448;-77
2021/01/17 10:33:30;;;;;;;25.67;16.20;;;;;;;-0.44;100.00;151258.03;5099746;27;20526;-77
2021/01/17 10:36:11;;;;;;;47.10;32.10;;;;;;;-0.44;100.00;151258.03;5001940;28;20441;-77
2021/01/17 10:38:50;;;;;;;48.77;32.40;;;;;;;-0.42;100.00;151263.16;4999956;28;20434;-77
2021/01/17 10:41:27;;;;;;;72.60;44.20;;;;;;;-0.42;100.00;151264.47;5010343;28;20470;-77
2021/01/17 10:44:10;;;;;;;125.37;64.10;;;;;;;-0.39;100.00;151272.16;4997109;28;20449;-77
2021/01/17 10:46:52;;;;;;;68.73;41.03;;;;;;;-0.36;100.00;151279.88;4994234;28;20793;-77
2021/01/17 10:49:43;;;;;;;57.83;35.33;;;;;;;-0.39;100.00;151270.88;5004655;28;20500;-77
2021/01/17 10:52:22;;;;;;;66.83;39.83;;;;;;;-0.37;100.00;151277.28;5025947;28;20448;-77
2021/01/17 10:55:00;;;;;;;368.33;200.77;;;;;;;-0.33;100.00;151287.56;5026006;28;20848;-77
2021/01/17 10:57:36;;;;;;;161.60;88.80;;;;;;;-0.30;100.00;151295.28;5069947;28;20470;-77
2021/01/17 11:00:13;;;;;;;70.43;43.37;;;;;;;-0.21;100.00;151318.34;5094669;28;20445;-77
2021/01/17 11:03:01;;;;;;;28.90;23.13;;;;;;;-0.21;100.00;151318.34;5080967;28;20477;-77
2021/01/17 11:05:37;;;;;;;54.73;34.23;;;;;;;-0.21;100.00;151318.34;5093414;28;20892;-77
2021/01/17 11:08:13;;;;;;;89.37;52.57;;;;;;;-0.18;100.00;151326.03;5110381;27;20445;-77
2021/01/17 11:10:57;;;;;;;44.13;26.67;;;;;;;-0.15;100.00;151333.75;5095190;28;20415;-77
2021/01/17 11:13:33;;;;;;;37.00;25.83;;;;;;;-0.13;100.00;151338.88;5110728;28;20504;-77
2021/01/17 11:16:09;;;;;;;25.60;17.73;;;;;;;-0.11;100.00;151344.00;5095606;28;20797;-77
2021/01/17 11:18:48;;;;;;;165.13;84.30;;;;;;;-0.05;100.00;151359.41;5093225;28;20556;-77
2021/01/17 11:21:24;;;;;;;101.17;57.17;;;;;;;-0.10;100.00;151345.28;5093578;28;20471;-77
2021/01/17 11:23:59;;;;;;;102.40;53.43;;;;;;;-0.07;100.00;151352.97;5097014;28;20935;-77
2021/01/17 11:26:36;;;;;;;46.63;27.63;;;;;;;-0.05;100.00;151358.09;5106658;28;20437;-77
2021/01/17 11:29:14;;;;;;;20.77;14.57;;;;;;;0.00;100.00;151372.22;5093172;28;20447;-77
2021/01/17 11:31:50;;;;;;;40.60;24.77;;;;;;;0.01;100.00;151373.53;5094621;28;20439;-77
2021/01/17 11:34:25;;;;;;;21.30;14.47;;;;;;;0.02;100.00;151374.81;5080086;28;20449;-77
2021/01/17 11:37:01;;;;;;;20.43;14.27;;;;;;;0.06;100.00;151385.06;5112173;27;20435;-77
2021/01/17 11:39:36;;;;;;;24.40;16.53;;;;;;;0.07;100.00;151388.94;5110665;28;21133;-76
2021/01/17 11:42:18;;;;;;;18.37;14.57;;;;;;;0.10;100.00;151396.63;5093492;28;20461;-77
2021/01/17 11:44:54;;;;;;;27.60;17.77;;;;;;;0.14;100.00;151405.59;5110170;28;20557;-77
2021/01/17 11:47:29;;;;;;;28.27;20.07;;;;;;;0.15;100.00;151409.47;5092402;28;20788;-77
2021/01/17 11:50:17;;;;;;;19.53;13.77;;;;;;;0.14;100.00;151405.59;5094252;28;20462;-77
2021/01/17 11:53:00;;;;;;;20.87;15.30;;;;;;;0.12;100.00;151400.47;5110074;27;20445;-77